Time;durP1;ratioP1;P1;durP2;ratioP2;P2;SDS_P1;SDS_P2;PMS_P1;PMS_P2;Temp;Humidity;BMP_temperature;BMP_pressure;BME280_temperature;BME280_humidity;BME280_pressure;Samples;Min_cycle;Max_cycle;Signal;HPM_P1;HPM_P2
2022/10/30 00:01:48;;;;;;;0.20;0.20;;;;;;;5.84;78.23;99090.38;10612034;28;20054;-76
2022/10/30 00:06:50;;;;;;;0.10;0.10;;;;;;;5.78;77.93;99088.81;10611461;28;20040;-75
2022/10/30 00:11:52;;;;;;;0.20;0.20;;;;;;;5.71;77.52;99074.69;10589518;28;20036;-75
2022/10/30 00:16:54;;;;;;;1.05;0.17;;;;;;;5.67;77.07;99090.00;10610296;28;20046;-75
2022/10/30 00:21:57;;;;;;;0.10;0.10;;;;;;;5.59;76.79;99088.72;10611104;28;20527;-75
2022/10/30 00:26:59;;;;;;;0.10;0.10;;;;;;;5.51;76.06;99083.06;10581195;28;20048;-75
2022/10/30 00:32:01;;;;;;;0.13;0.10;;;;;;;5.41;76.43;99086.69;10569110;28;20040;-75
2022/10/30 00:37:03;;;;;;;0.10;0.10;;;;;;;5.32;76.59;99085.69;10589654;28;20048;-75
2022/10/30 00:42:11;;;;;;;0.63;0.17;;;;;;;5.31;76.73;99086.78;10605579;28;20042;-75
2022/10/30 00:47:23;;;;;;;0.08;0.08;;;;;;;5.25;76.13;99094.16;10601671;28;20044;-75
2022/10/30 00:52:29;;;;;;;0.00;0.00;;;;;;;5.18;77.22;99096.38;10601124;28;20054;-75
2022/10/30 00:57:32;;;;;;;0.30;0.10;;;;;;;5.11;76.84;99098.63;10587726;28;20511;-74
2022/10/30 01:02:36;;;;;;;0.35;0.20;;;;;;;5.03;76.74;99110.91;10617844;28;20548;-76
2022/10/30 01:07:41;;;;;;;0.10;0.10;;;;;;;4.99;76.97;99106.31;10617655;28;20036;-73
2022/10/30 01:12:44;;;;;;;0.08;0.08;;;;;;;4.95;76.14;99119.66;10613975;27;20040;-75
2022/10/30 01:18:19;;;;;;;0.13;0.05;;;;;;;4.88;76.26;99108.28;10602305;28;20043;-75
2022/10/30 01:23:42;;;;;;;0.38;0.10;;;;;;;4.91;76.05;99129.47;10601281;28;20512;-75
2022/10/30 01:29:10;;;;;;;0.10;0.10;;;;;;;4.87;75.33;99147.44;10581413;28;20040;-74
2022/10/30 01:34:20;;;;;;;0.47;0.10;;;;;;;4.92;75.62;99143.88;10574205;28;20513;-75
2022/10/30 01:39:31;;;;;;;0.38;0.20;;;;;;;4.98;75.88;99140.03;10616091;28;20051;-76
2022/10/30 01:44:33;;;;;;;0.15;0.10;;;;;;;5.01;75.96;99147.59;10576513;28;20054;-76
2022/10/30 01:50:01;;;;;;;0.10;0.10;;;;;;;5.07;75.02;99150.03;10590285;28;20036;-75
2022/10/30 01:55:15;;;;;;;0.20;0.05;;;;;;;5.09;74.52;99149.75;10583627;28;20043;-76
2022/10/30 02:00:19;;;;;;;0.45;0.10;;;;;;;5.13;74.77;99151.63;10613063;28;20509;-75
2022/10/30 02:05:31;;;;;;;0.20;0.20;;;;;;;5.09;74.83;99150.56;10604985;28;20559;-75
2022/10/30 02:10:34;;;;;;;0.63;0.35;;;;;;;5.12;74.34;99162.78;10572010;28;20059;-75
2022/10/30 02:15:37;;;;;;;0.40;0.10;;;;;;;5.07;73.97;99150.03;10539339;28;20551;-75
2022/10/30 02:20:39;;;;;;;0.47;0.20;;;;;;;5.05;73.44;99159.56;10576278;28;20028;-75
2022/10/30 02:25:42;;;;;;;0.20;0.20;;;;;;;4.97;73.17;99158.25;10616232;28;20054;-75
2022/10/30 02:30:45;;;;;;;1.27;0.10;;;;;;;4.92;72.56;99146.59;10613930;28;20820;-75
2022/10/30 02:35:47;;;;;;;0.10;0.10;;;;;;;4.85;72.75;99160.47;10595704;28;20039;-75
2022/10/30 02:40:50;;;;;;;0.03;0.03;;;;;;;4.75;72.45;99176.84;10613171;28;20043;-75
2022/10/30 02:45:54;;;;;;;0.40;0.10;;;;;;;4.75;72.13;99169.50;10596488;28;20049;-74
2022/10/30 02:51:00;;;;;;;0.10;0.10;;;;;;;4.74;70.96;99183.38;10609745;28;20055;-75
2022/10/30 02:56:05;;;;;;;0.60;0.10;;;;;;;4.68;70.49;99185.28;10607529;28;20051;-75
2022/10/30 03:01:13;;;;;;;0.00;0.00;;;;;;;4.61;70.39;99186.69;10578122;28;20043;-76
2022/10/30 03:06:16;;;;;;;0.28;0.10;;;;;;;4.57;70.40;99185.59;10595066;28;20042;-76
2022/10/30 03:11:19;;;;;;;0.10;0.10;;;;;;;4.51;69.29;99187.50;10588851;28;20409;-76
2022/10/30 03:16:54;;;;;;;0.20;0.10;;;;;;;4.49;68.91;99200.56;10604474;28;20131;-76
2022/10/30 03:21:56;;;;;;;0.40;0.20;;;;;;;4.43;69.52;99213.34;10588390;28;20039;-75
2022/10/30 03:27:02;;;;;;;0.17;0.15;;;;;;;4.40;69.14;99203.03;10603236;28;20043;-74
2022/10/30 03:32:09;;;;;;;0.10;0.10;;;;;;;4.41;69.66;99234.53;10569221;28;20529;-74
2022/10/30 03:37:19;;;;;;;0.75;0.20;;;;;;;4.36;70.21;99242.72;10574673;28;20417;-74
2022/10/30 03:42:21;;;;;;;0.70;0.22;;;;;;;4.26;69.29;99242.72;10611730;28;20044;-74
2022/10/30 03:47:25;;;;;;;0.13;0.13;;;;;;;4.21;69.00;99243.53;10577876;28;20048;-76
2022/10/30 03:52:31;;;;;;;0.95;0.20;;;;;;;4.15;67.80;99238.38;10583902;28;20039;-75
2022/10/30 03:57:38;;;;;;;3.00;0.30;;;;;;;4.07;67.93;99266.09;10596299;28;20490;-75
2022/10/30 04:02:49;;;;;;;0.40;0.40;;;;;;;4.02;67.64;99304.09;10596316;28;20437;-75
2022/10/30 04:08:01;;;;;;;1.40;0.30;;;;;;;3.39;73.56;99347.63;10570999;28;20036;-75
2022/10/30 04:13:06;;;;;;;0.20;0.20;;;;;;;2.85;77.50;99345.19;10596907;28;20031;-75
2022/10/30 04:18:41;;;;;;;0.10;0.10;;;;;;;2.57;80.55;99351.78;10600702;28;20040;-75
2022/10/30 04:23:43;;;;;;;0.20;0.20;;;;;;;2.39;81.67;99360.31;10592083;28;20058;-75
2022/10/30 04:28:47;;;;;;;0.45;0.20;;;;;;;2.23;83.14;99374.78;10567897;28;20031;-75
2022/10/30 04:33:49;;;;;;;0.10;0.10;;;;;;;2.11;84.00;99367.69;10577089;28;20036;-75
2022/10/30 04:38:51;;;;;;;0.00;0.00;;;;;;;2.15;84.63;99357.16;10618423;27;20048;-75
2022/10/30 04:43:56;;;;;;;0.65;0.30;;;;;;;2.23;83.71;99369.38;10618170;28;20520;-75
2022/10/30 04:48:59;;;;;;;0.20;0.13;;;;;;;2.22;84.37;99363.16;10598780;28;20055;-75
2022/10/30 04:54:01;;;;;;;0.35;0.35;;;;;;;2.24;84.54;99354.78;10602227;28;20394;-75
2022/10/30 04:59:06;;;;;;;0.17;0.10;;;;;;;2.22;84.09;99359.63;10605642;28;20052;-75
2022/10/30 05:04:08;;;;;;;1.35;0.28;;;;;;;2.17;83.78;99359.59;10615184;27;20047;-75
2022/10/30 05:09:11;;;;;;;0.50;0.40;;;;;;;2.22;84.30;99355.03;10596861;28;20035;-75
2022/10/30 05:14:15;;;;;;;1.13;0.20;;;;;;;2.27;84.56;99351.56;10616991;28;20425;-75
2022/10/30 05:19:20;;;;;;;1.45;0.30;;;;;;;2.21;82.84;99366.94;10605183;28;20039;-75
2022/10/30 05:24:30;;;;;;;0.73;0.30;;;;;;;2.08;81.71;99378.19;10574651;28;20040;-75
2022/10/30 05:29:57;;;;;;;2.67;0.50;;;;;;;2.06;78.46;99370.31;10580485;27;20039;-75
2022/10/30 05:34:59;;;;;;;0.47;0.20;;;;;;;2.13;77.74;99390.97;10578713;28;20044;-75
2022/10/30 05:40:08;;;;;;;0.17;0.17;;;;;;;2.19;76.76;99390.75;10589384;28;20035;-76
2022/10/30 05:45:11;;;;;;;0.75;0.22;;;;;;;2.35;75.56;99394.41;10588670;28;20495;-74
2022/10/30 05:50:19;;;;;;;0.90;0.32;;;;;;;2.67;73.81;99403.31;10592283;27;20051;-75
2022/10/30 05:55:31;;;;;;;1.00;0.22;;;;;;;2.65;73.36;99404.66;10609490;28;20052;-74
2022/10/30 06:00:44;;;;;;;0.55;0.20;;;;;;;2.54;71.73;99401.06;10573507;28;20043;-76
2022/10/30 06:05:49;;;;;;;0.47;0.30;;;;;;;2.56;71.29;99407.03;10586039;28;20047;-76
2022/10/30 06:10:53;;;;;;;0.82;0.20;;;;;;;3.03;70.07;99415.22;10600814;28;20046;-76
2022/10/30 06:16:02;;;;;;;1.10;0.40;;;;;;;3.39;67.45;99420.03;10588598;28;20058;-76
2022/10/30 06:21:31;;;;;;;0.20;0.20;;;;;;;3.32;66.89;99417.56;10575168;27;20048;-75
2022/10/30 06:26:46;;;;;;;1.13;0.40;;;;;;;3.03;66.85;99426.06;10583838;27;20050;-74
2022/10/30 06:31:49;;;;;;;1.50;0.13;;;;;;;2.86;66.77;99430.00;10582254;28;20040;-77
2022/10/30 06:36:53;;;;;;;1.48;0.30;;;;;;;3.26;66.12;99424.81;10613679;28;20488;-75
2022/10/30 06:41:59;;;;;;;0.45;0.32;;;;;;;3.48;65.64;99432.81;10612860;28;20066;-75
2022/10/30 06:47:15;;;;;;;0.40;0.35;;;;;;;3.78;62.44;99451.09;10609286;28;20445;-74
2022/10/30 06:52:21;;;;;;;0.20;0.20;;;;;;;4.01;62.39;99438.16;10592745;28;20055;-75
2022/10/30 06:57:25;;;;;;;0.80;0.43;;;;;;;4.28;61.41;99446.09;10579488;28;20430;-74
2022/10/30 07:02:57;;;;;;;0.98;0.40;;;;;;;4.30;61.12;99435.78;10612187;28;20468;-77
2022/10/30 07:08:00;;;;;;;1.38;0.47;;;;;;;4.33;59.76;99446.09;10594536;28;20058;-77
2022/10/30 07:13:03;;;;;;;0.93;0.40;;;;;;;4.50;59.10;99463.75;10609857;28;20054;-76
2022/10/30 07:18:26;;;;;;;0.63;0.52;;;;;;;4.76;59.01;99452.94;10611716;28;20445;-76
2022/10/30 07:23:32;;;;;;;0.35;0.30;;;;;;;5.04;57.71;99465.16;10595112;28;20051;-76
2022/10/30 07:28:54;;;;;;;0.80;0.40;;;;;;;5.17;55.48;99461.03;10570092;28;20048;-76
2022/10/30 07:34:16;;;;;;;1.08;0.45;;;;;;;5.24;55.18;99473.28;10596670;28;20049;-78
2022/10/30 07:39:39;;;;;;;1.30;0.50;;;;;;;5.46;55.07;99481.13;10610919;28;20046;-75
2022/10/30 07:45:07;;;;;;;1.08;0.50;;;;;;;5.48;53.76;99478.13;10570659;28;20052;-75
2022/10/30 07:50:31;;;;;;;0.77;0.40;;;;;;;5.57;54.06;99484.63;10606360;28;20040;-75
2022/10/30 07:55:33;;;;;;;0.75;0.30;;;;;;;5.78;52.70;99482.66;10580080;28;20055;-76
2022/10/30 08:01:02;;;;;;;0.93;0.50;;;;;;;5.90;51.82;99496.78;10556705;27;20044;-76
2022/10/30 08:06:09;;;;;;;0.52;0.30;;;;;;;5.93;51.92;99486.19;10589954;27;20054;-75
2022/10/30 08:11:13;;;;;;;0.93;0.40;;;;;;;6.50;50.79;99490.22;10568016;28;20039;-75
2022/10/30 08:16:17;;;;;;;1.35;0.38;;;;;;;6.22;49.87;99494.47;10591936;28;20055;-75
2022/10/30 08:21:19;;;;;;;0.20;0.10;;;;;;;5.99;50.28;99501.38;10591937;28;20063;-75
2022/10/30 08:26:31;;;;;;;0.85;0.45;;;;;;;5.36;50.76;99498.25;10596206;28;20038;-76
2022/10/30 08:31:34;;;;;;;0.73;0.50;;;;;;;4.65;52.36;99528.19;10585315;28;20039;-76
2022/10/30 08:36:46;;;;;;;0.60;0.25;;;;;;;4.33;53.41;99528.38;10584186;28;20105;-78
2022/10/30 08:41:49;;;;;;;1.45;0.38;;;;;;;4.20;53.48;99529.72;10605083;28;20052;-78
2022/10/30 08:46:51;;;;;;;0.50;0.30;;;;;;;3.97;52.62;99538.28;10593999;28;20036;-76
2022/10/30 08:51:54;;;;;;;1.05;0.20;;;;;;;3.89;52.85;99541.53;10590644;28;20417;-77
2022/10/30 08:56:56;;;;;;;0.60;0.50;;;;;;;3.81;53.65;99529.25;10582595;28;20051;-76
2022/10/30 09:01:59;;;;;;;1.05;0.40;;;;;;;3.71;53.04;99563.69;10585226;28;20044;-76
2022/10/30 09:07:20;;;;;;;0.20;0.20;;;;;;;3.72;53.09;99570.72;10578811;28;20061;-76
2022/10/30 09:12:42;;;;;;;1.17;0.20;;;;;;;3.62;52.83;99571.47;10609172;28;20044;-75
2022/10/30 09:17:44;;;;;;;1.00;0.20;;;;;;;3.68;52.34;99585.91;10598097;28;20043;-75
2022/10/30 09:22:46;;;;;;;0.65;0.30;;;;;;;3.73;52.25;99589.47;10575325;28;20036;-75
2022/10/30 09:27:49;;;;;;;0.52;0.20;;;;;;;3.69;52.20;99590.25;10559245;28;20130;-78
2022/10/30 09:32:56;;;;;;;0.63;0.30;;;;;;;3.68;51.54;99591.34;10581432;28;20042;-78
2022/10/30 09:38:09;;;;;;;3.72;0.45;;;;;;;3.67;51.21;99608.69;10572491;27;20421;-78
2022/10/30 09:43:49;;;;;;;0.22;0.22;;;;;;;3.72;51.88;99614.97;10578620;27;20040;-76
2022/10/30 09:49:21;;;;;;;1.85;0.73;;;;;;;3.70;51.01;99625.25;10499058;28;20050;-74
2022/10/30 09:54:44;;;;;;;0.40;0.30;;;;;;;3.74;50.95;99623.66;10596452;28;20040;-76
2022/10/30 10:00:05;;;;;;;0.70;0.52;;;;;;;3.74;51.36;99629.06;10610081;28;20040;-76
2022/10/30 10:05:24;;;;;;;0.38;0.30;;;;;;;3.70;50.04;99641.53;10602991;27;20048;-76
2022/10/30 10:10:52;;;;;;;1.08;0.70;;;;;;;3.73;50.92;99627.44;10611593;27;20039;-81
2022/10/30 10:15:58;;;;;;;1.25;0.40;;;;;;;3.76;50.36;99628.81;10616288;27;20075;-79
2022/10/30 10:21:09;;;;;;;1.17;0.52;;;;;;;3.80;50.44;99630.72;10549997;28;20035;-76
2022/10/30 10:26:30;;;;;;;0.85;0.47;;;;;;;3.78;50.24;99645.66;10607661;28;20060;-80
2022/10/30 10:31:43;;;;;;;0.98;0.30;;;;;;;3.80;49.81;99646.19;10613455;27;20055;-80
2022/10/30 10:37:03;;;;;;;0.75;0.40;;;;;;;3.75;49.34;99657.84;10617298;27;20060;-80
2022/10/30 10:42:21;;;;;;;1.35;0.30;;;;;;;3.76;49.81;99666.81;10606757;28;20031;-78
2022/10/30 10:47:27;;;;;;;1.98;0.40;;;;;;;3.75;48.85;99657.03;10610342;27;20086;-81
2022/10/30 10:52:37;;;;;;;0.93;0.50;;;;;;;3.77;49.59;99671.97;10599052;27;20035;-82
2022/10/30 10:57:40;;;;;;;0.73;0.60;;;;;;;3.85;48.87;99673.38;10611008;27;20054;-81
2022/10/30 11:02:57;;;;;;;0.73;0.52;;;;;;;3.76;49.00;99675.75;10606163;27;20051;-81
2022/10/30 11:08:30;;;;;;;1.35;0.30;;;;;;;3.79;49.06;99688.78;10610647;27;20410;-80
2022/10/30 11:13:36;;;;;;;1.27;0.32;;;;;;;3.73;48.75;99681.72;10577366;28;20535;-81
2022/10/30 11:18:39;;;;;;;0.75;0.40;;;;;;;3.84;49.37;99707.03;10596384;28;20036;-81
2022/10/30 11:23:43;;;;;;;0.32;0.30;;;;;;;3.87;49.91;99704.63;10597342;28;20053;-82
2022/10/30 11:28:59;;;;;;;0.40;0.30;;;;;;;3.93;49.06;99709.00;10616628;27;20053;-82
2022/10/30 11:34:16;;;;;;;1.25;0.38;;;;;;;4.02;49.74;99700.38;10592339;27;20042;-82
2022/10/30 11:39:27;;;;;;;0.53;0.30;;;;;;;4.05;49.54;99713.44;10599595;28;20504;-81
2022/10/30 11:44:34;;;;;;;1.17;0.50;;;;;;;3.97;50.14;99714.72;10612643;28;20046;-82
2022/10/30 11:50:05;;;;;;;3.22;0.60;;;;;;;3.98;49.02;99718.25;10599586;27;20490;-78
2022/10/30 11:55:15;;;;;;;1.92;0.47;;;;;;;3.91;49.88;99724.72;10581888;28;20035;-75
2022/10/30 12:00:23;;;;;;;1.13;0.30;;;;;;;3.92;49.65;99739.09;10596324;28;20052;-76
2022/10/30 12:05:39;;;;;;;0.50;0.38;;;;;;;3.84;49.58;99747.75;10595195;28;20055;-75
2022/10/30 12:10:52;;;;;;;2.08;0.50;;;;;;;3.81;49.62;99749.06;10567723;28;20043;-77
2022/10/30 12:16:07;;;;;;;0.77;0.50;;;;;;;3.73;49.49;99767.72;10587449;28;20040;-78
2022/10/30 12:21:16;;;;;;;0.50;0.50;;;;;;;3.70;49.46;99779.09;10593758;28;20052;-81
2022/10/30 12:26:19;;;;;;;1.80;1.10;;;;;;;3.67;49.47;99775.00;10610093;28;20048;-75
2022/10/30 12:31:27;;;;;;;0.55;0.55;;;;;;;3.72;48.68;99790.50;10588136;28;20395;-75
2022/10/30 12:36:34;;;;;;;0.77;0.60;;;;;;;3.74;48.46;99799.19;10588403;28;20059;-75
2022/10/30 12:42:00;;;;;;;2.00;0.40;;;;;;;3.68;49.51;99808.38;10582290;28;20052;-81
2022/10/30 12:47:33;;;;;;;1.13;0.30;;;;;;;3.61;49.36;99827.53;10587267;28;20523;-84
2022/10/30 12:53:01;;;;;;;0.60;0.40;;;;;;;3.58;49.84;99814.50;10601173;28;20058;-89
2022/10/30 12:58:20;;;;;;;0.50;0.30;;;;;;;3.54;49.77;99835.91;10602757;27;20035;-74
2022/10/30 13:03:29;;;;;;;0.57;0.57;;;;;;;3.52;49.51;99837.22;10595589;27;20533;-73
2022/10/30 13:08:59;;;;;;;1.05;0.40;;;;;;;3.52;50.90;99850.78;10597304;27;20044;-74
2022/10/30 13:14:02;;;;;;;0.57;0.50;;;;;;;3.56;50.30;99849.19;10595434;27;20506;-75
2022/10/30 13:19:10;;;;;;;1.35;0.60;;;;;;;3.50;51.38;99839.38;10594842;28;20039;-74
2022/10/30 13:24:27;;;;;;;2.53;0.70;;;;;;;3.49;51.56;99864.88;10584349;28;20540;-74
2022/10/30 13:29:48;;;;;;;0.75;0.60;;;;;;;3.47;52.26;99864.28;10620305;27;20044;-75
2022/10/30 13:35:14;;;;;;;1.10;0.40;;;;;;;3.41;52.25;99876.97;10608790;27;20047;-75
2022/10/30 13:40:26;;;;;;;2.15;0.60;;;;;;;3.32;52.46;99878.50;10593931;27;20059;-73
2022/10/30 13:46:25;;;;;;;0.95;0.40;;;;;;;3.21;51.51;99874.81;10602183;27;20039;-73
2022/10/30 13:51:33;;;;;;;2.38;0.75;;;;;;;3.12;51.56;99886.34;10480661;28;20055;-73
2022/10/30 13:56:35;;;;;;;;;;;;;;;3.08;51.41;99890.63;10560293;28;20040;-74
2022/10/30 14:01:56;;;;;;;0.88;0.52;;;;;;;2.97;51.54;99905.94;10606251;28;20130;-75
2022/10/30 14:06:58;;;;;;;2.00;0.80;;;;;;;2.90;52.64;99906.09;10597468;27;20547;-73
2022/10/30 14:12:38;;;;;;;1.38;0.70;;;;;;;2.85;53.14;99925.00;10599315;27;20039;-83
2022/10/30 14:18:12;;;;;;;0.60;0.52;;;;;;;2.81;52.32;99917.63;10577280;27;20043;-82
2022/10/30 14:23:24;;;;;;;0.63;0.55;;;;;;;2.73;52.77;99927.78;10608178;27;20036;-84
2022/10/30 14:28:26;;;;;;;0.60;0.50;;;;;;;2.71;53.47;99937.22;10610174;28;20053;-81
2022/10/30 14:33:46;;;;;;;1.10;0.63;;;;;;;2.72;54.44;99939.69;10599644;27;20044;-83
2022/10/30 14:38:57;;;;;;;1.20;0.60;;;;;;;2.65;54.98;99949.88;10595857;28;20029;-81
2022/10/30 14:44:29;;;;;;;2.25;0.50;;;;;;;2.55;54.52;99951.59;10607738;27;20051;-81
2022/10/30 14:49:34;;;;;;;2.42;0.75;;;;;;;2.55;54.46;99952.41;10611383;28;20036;-81
2022/10/30 14:54:46;;;;;;;1.23;0.45;;;;;;;2.50;54.80;99955.03;10589650;28;20048;-82
2022/10/30 14:59:48;;;;;;;1.77;0.55;;;;;;;2.42;55.23;99958.13;10591320;28;20449;-80
2022/10/30 15:05:25;;;;;;;1.17;0.60;;;;;;;2.42;55.86;99963.53;10606664;28;20465;-79
2022/10/30 15:10:32;;;;;;;1.25;0.52;;;;;;;2.33;56.20;99965.03;10484732;27;20716;-78
2022/10/30 15:15:35;;;;;;;1.95;0.50;;;;;;;2.31;56.69;99972.56;10622105;27;20519;-80
2022/10/30 15:20:38;;;;;;;2.30;0.90;;;;;;;2.21;56.88;99973.19;10613220;28;20042;-80
2022/10/30 15:25:49;;;;;;;0.85;0.63;;;;;;;2.09;56.36;99984.09;10598988;28;20142;-79
2022/10/30 15:31:17;;;;;;;2.67;1.00;;;;;;;2.09;56.62;99978.69;10609971;28;20047;-78
2022/10/30 15:36:29;;;;;;;1.80;0.60;;;;;;;2.10;56.68;99974.91;10612157;28;20074;-82
2022/10/30 15:41:34;;;;;;;5.68;1.20;;;;;;;1.99;56.64;99978.47;10611031;28;20131;-75
2022/10/30 15:46:37;;;;;;;2.47;0.80;;;;;;;2.01;56.98;99983.66;10588267;28;20054;-75
2022/10/30 15:51:45;;;;;;;2.97;0.90;;;;;;;1.96;56.77;99997.09;10594247;27;20045;-75
2022/10/30 15:56:50;;;;;;;1.38;0.90;;;;;;;1.92;57.10;100001.34;10608249;27;20039;-77
2022/10/30 16:01:56;;;;;;;2.15;1.08;;;;;;;1.89;56.87;100002.59;10603077;28;20048;-75
2022/10/30 16:07:02;;;;;;;3.85;1.05;;;;;;;1.84;56.55;99996.28;10599932;28;20058;-81
2022/10/30 16:12:05;;;;;;;2.05;1.08;;;;;;;1.87;55.96;100004.75;10574899;28;20047;-79
2022/10/30 16:17:09;;;;;;;4.13;1.40;;;;;;;1.83;55.96;100013.56;10611536;28;20039;-78
2022/10/30 16:22:20;;;;;;;1.15;0.80;;;;;;;1.89;56.52;100009.91;10590136;28;20047;-82
2022/10/30 16:27:23;;;;;;;0.63;0.45;;;;;;;1.88;55.86;100025.31;10607108;28;20121;-85
2022/10/30 16:32:28;;;;;;;0.75;0.52;;;;;;;1.87;56.04;100037.19;10594629;28;20027;-83
2022/10/30 16:37:34;;;;;;;1.05;0.70;;;;;;;1.87;56.04;100033.66;10600811;28;20054;-82
2022/10/30 16:42:36;;;;;;;1.02;0.70;;;;;;;1.83;56.54;100043.34;10618373;28;20537;-74
2022/10/30 16:47:43;;;;;;;2.28;0.90;;;;;;;1.72;57.27;100036.88;10611768;27;20142;-73
2022/10/30 16:52:45;;;;;;;1.85;0.88;;;;;;;1.67;58.09;100034.88;10603400;28;20043;-74
2022/10/30 16:57:52;;;;;;;1.17;0.77;;;;;;;1.64;58.99;100042.66;10605492;27;20040;-77
2022/10/30 17:02:56;;;;;;;4.88;0.80;;;;;;;1.51;59.41;100052.66;10601299;27;20060;-75
2022/10/30 17:07:59;;;;;;;1.60;0.77;;;;;;;1.47;59.71;100037.16;10612195;27;20043;-73
2022/10/30 17:13:27;;;;;;;2.08;0.80;;;;;;;1.45;59.97;100050.09;10621497;27;20035;-75
2022/10/30 17:18:31;;;;;;;2.30;0.73;;;;;;;1.45;60.24;100050.91;10626042;27;20066;-74
2022/10/30 17:23:34;;;;;;;2.10;0.80;;;;;;;1.57;59.80;100052.78;10612714;28;20039;-73
2022/10/30 17:28:37;;;;;;;1.92;1.20;;;;;;;1.52;60.60;100050.78;10599556;28;20561;-74
2022/10/30 17:33:39;;;;;;;1.13;0.80;;;;;;;1.57;60.13;100048.22;10618489;27;20055;-73
2022/10/30 17:39:07;;;;;;;2.13;0.70;;;;;;;1.48;59.38;100050.44;10597140;27;20055;-75
2022/10/30 17:44:30;;;;;;;0.90;0.70;;;;;;;1.51;59.49;100046.44;10600522;27;20048;-74
2022/10/30 17:49:38;;;;;;;1.65;0.60;;;;;;;1.65;58.23;100049.72;10575507;28;20040;-73
2022/10/30 17:54:45;;;;;;;0.90;0.75;;;;;;;1.66;58.59;100064.88;10594959;27;20453;-73
2022/10/30 17:59:47;;;;;;;2.93;0.80;;;;;;;1.59;58.14;100066.91;10586340;27;20036;-73
2022/10/30 18:04:52;;;;;;;0.70;0.55;;;;;;;1.55;58.33;100054.88;10597577;27;20051;-75
2022/10/30 18:09:54;;;;;;;0.45;0.30;;;;;;;1.50;57.57;100059.13;10609515;28;20047;-81
2022/10/30 18:14:56;;;;;;;1.23;0.52;;;;;;;1.55;57.09;100054.88;10613143;28;20035;-74
2022/10/30 18:19:59;;;;;;;1.15;0.60;;;;;;;1.52;57.50;100059.72;10611604;28;20043;-81
2022/10/30 18:25:04;;;;;;;0.88;0.30;;;;;;;1.50;57.15;100064.53;10585420;28;20413;-81
2022/10/30 18:30:07;;;;;;;1.52;0.55;;;;;;;1.56;56.75;100075.44;10558800;28;20036;-85
2022/10/30 18:35:42;;;;;;;1.00;0.52;;;;;;;1.52;56.64;100069.69;10615575;28;20051;-83
2022/10/30 18:40:46;;;;;;;0.85;0.50;;;;;;;1.52;56.48;100080.53;10592794;28;20047;-77
2022/10/30 18:45:48;;;;;;;0.70;0.60;;;;;;;1.52;55.94;100065.13;10611694;28;20062;-77
2022/10/30 18:50:51;;;;;;;1.45;0.50;;;;;;;1.55;56.04;100073.81;10613313;28;20052;-80
2022/10/30 18:55:53;;;;;;;3.35;0.70;;;;;;;1.65;55.78;100069.47;10607502;28;20080;-80
2022/10/30 19:00:55;;;;;;;0.68;0.32;;;;;;;1.62;55.77;100079.94;10609632;28;20058;-84
2022/10/30 19:05:58;;;;;;;0.32;0.20;;;;;;;1.60;55.37;100084.75;10599497;28;20036;-88
2022/10/30 19:11:00;;;;;;;1.27;0.30;;;;;;;1.58;56.02;100092.28;10592615;28;20040;-82
2022/10/30 19:16:47;;;;;;;0.32;0.32;;;;;;;1.54;55.70;100088.38;10622482;28;20050;-80
2022/10/30 19:21:51;;;;;;;0.70;0.45;;;;;;;1.52;56.04;100111.09;10599141;28;20040;-81
2022/10/30 19:26:53;;;;;;;0.98;0.60;;;;;;;1.58;56.04;100116.63;10602861;27;20051;-79
2022/10/30 19:31:55;;;;;;;0.82;0.40;;;;;;;1.53;56.09;100106.50;10607806;27;20055;-88
2022/10/30 19:37:22;;;;;;;0.63;0.40;;;;;;;1.57;56.71;100117.69;10625735;27;20040;-85
2022/10/30 19:42:25;;;;;;;0.57;0.30;;;;;;;1.51;56.48;100124.84;10610441;28;20047;-81
2022/10/30 19:47:27;;;;;;;0.40;0.40;;;;;;;1.46;56.25;100133.66;10612045;28;20039;-81
2022/10/30 19:52:29;;;;;;;0.70;0.30;;;;;;;1.45;56.54;100137.41;10611883;28;20066;-81
2022/10/30 19:57:31;;;;;;;0.93;0.40;;;;;;;1.43;57.34;100123.31;10617364;28;20055;-82
2022/10/30 20:02:34;;;;;;;3.80;0.57;;;;;;;1.45;56.45;100145.53;10617413;28;20036;-80
2022/10/30 20:07:36;;;;;;;0.30;0.30;;;;;;;1.43;56.07;100141.41;10614392;28;20043;-85
2022/10/30 20:12:39;;;;;;;0.32;0.30;;;;;;;1.42;55.79;100137.06;10597310;28;20031;-88
2022/10/30 20:23:34;;;;;;;0.45;0.30;;;;;;;1.46;55.59;100155.28;10613435;28;20046;-86
2022/10/30 20:29:01;;;;;;;1.52;0.35;;;;;;;1.42;55.70;100158.69;10606132;28;20035;-84
2022/10/30 20:34:04;;;;;;;0.93;0.30;;;;;;;1.37;55.58;100162.06;10587997;28;20031;-85
2022/10/30 20:39:12;;;;;;;0.80;0.30;;;;;;;1.30;55.31;100168.66;10617278;28;20032;-81
2022/10/30 20:44:14;;;;;;;1.85;0.50;;;;;;;1.26;55.45;100171.00;10589896;28;20048;-77
2022/10/30 20:49:21;;;;;;;1.00;0.40;;;;;;;1.23;55.29;100182.28;10580661;28;20036;-76
2022/10/30 20:54:24;;;;;;;0.32;0.20;;;;;;;1.21;55.61;100173.56;10605639;28;20560;-76
2022/10/30 20:59:26;;;;;;;1.48;0.50;;;;;;;1.17;55.45;100178.59;10583349;28;20050;-85
2022/10/30 21:04:32;;;;;;;1.08;0.17;;;;;;;1.14;55.60;100180.94;10610934;28;20056;-79
2022/10/30 21:09:38;;;;;;;0.28;0.28;;;;;;;1.18;56.48;100180.25;10594783;28;20036;-79
2022/10/30 21:14:41;;;;;;;0.30;0.15;;;;;;;1.18;56.13;100185.66;10605371;28;20050;-78
2022/10/30 21:19:43;;;;;;;1.95;0.30;;;;;;;1.09;56.47;100191.63;10627597;27;20536;-72
2022/10/30 21:24:45;;;;;;;0.40;0.20;;;;;;;1.05;56.66;100185.06;10604542;27;20044;-74
2022/10/30 21:29:47;;;;;;;0.75;0.50;;;;;;;0.98;57.05;100197.81;10612672;28;20063;-75
2022/10/30 21:34:49;;;;;;;0.75;0.50;;;;;;;0.92;57.78;100202.25;10621070;28;20050;-85
2022/10/30 21:39:52;;;;;;;0.57;0.28;;;;;;;0.86;57.56;100192.34;10627534;28;20052;-87
2022/10/30 21:44:54;;;;;;;0.73;0.30;;;;;;;0.75;58.08;100199.38;10610453;28;20389;-86
2022/10/30 21:49:56;;;;;;;0.30;0.20;;;;;;;0.70;58.57;100193.00;10626456;28;20038;-84
2022/10/30 21:54:58;;;;;;;0.90;0.30;;;;;;;0.67;58.63;100201.53;10615175;28;20048;-81
2022/10/30 22:00:00;;;;;;;0.05;0.05;;;;;;;0.71;59.69;100224.34;10621786;28;20144;-79
2022/10/30 22:05:03;;;;;;;0.40;0.40;;;;;;;0.78;58.69;100223.22;10623522;28;20065;-79
2022/10/30 22:10:06;;;;;;;1.50;0.52;;;;;;;0.75;58.97;100231.78;10620016;27;20046;-81
2022/10/30 22:15:10;;;;;;;2.42;0.22;;;;;;;0.75;59.13;100234.47;10600227;28;20040;-80
2022/10/30 22:20:12;;;;;;;1.80;0.50;;;;;;;0.75;58.75;100239.88;10608437;28;20036;-82
2022/10/30 22:25:15;;;;;;;1.10;0.20;;;;;;;0.71;58.75;100246.78;10615432;28;20042;-83
2022/10/30 22:30:17;;;;;;;0.98;0.20;;;;;;;0.72;59.12;100256.53;10619527;28;20542;-79
2022/10/30 22:35:19;;;;;;;0.32;0.20;;;;;;;0.80;60.05;100253.50;10608874;27;20057;-80
2022/10/30 22:40:21;;;;;;;0.52;0.20;;;;;;;0.83;58.95;100255.75;10621664;27;20032;-80
2022/10/30 22:45:23;;;;;;;0.55;0.30;;;;;;;0.70;58.75;100261.34;10620700;27;20051;-79
2022/10/30 22:50:26;;;;;;;0.80;0.25;;;;;;;0.66;59.16;100270.91;10608799;28;20032;-77
2022/10/30 22:55:28;;;;;;;0.70;0.28;;;;;;;0.63;59.18;100290.28;10598810;28;20044;-74
2022/10/30 23:00:30;;;;;;;0.47;0.20;;;;;;;0.65;59.26;100303.53;10625654;27;20536;-73
2022/10/30 23:05:32;;;;;;;0.25;0.25;;;;;;;0.64;59.95;100305.41;10633016;27;20051;-74
2022/10/30 23:10:34;;;;;;;0.70;0.20;;;;;;;0.59;59.51;100321.47;10612642;27;20055;-75
2022/10/30 23:16:07;;;;;;;0.63;0.10;;;;;;;0.57;59.59;100310.06;10588564;28;20036;-75
2022/10/30 23:21:20;;;;;;;0.90;0.15;;;;;;;0.52;59.50;100328.81;10603767;27;20042;-74
2022/10/30 23:26:26;;;;;;;1.10;0.32;;;;;;;0.49;59.55;100340.03;10602984;28;20043;-74
2022/10/30 23:31:38;;;;;;;0.52;0.40;;;;;;;0.47;59.85;100340.28;10601569;28;20035;-75
2022/10/30 23:36:42;;;;;;;0.30;0.30;;;;;;;0.51;59.85;100340.66;10610822;28;20044;-74
2022/10/30 23:41:44;;;;;;;0.20;0.20;;;;;;;0.46;59.86;100338.63;10597889;28;20039;-75
2022/10/30 23:46:46;;;;;;;0.50;0.30;;;;;;;0.42;59.99;100337.44;10594839;28;20501;-74
2022/10/30 23:51:48;;;;;;;0.85;0.30;;;;;;;0.50;60.71;100345.22;10609335;28;20047;-74
2022/10/30 23:56:50;;;;;;;0.88;0.30;;;;;;;0.45;60.55;100341.53;10598604;28;20047;-74
